Time,TemperatureF,DewpointF,PressureIn,WindDirection,WindDirectionDegrees,WindSpeedMPH,WindSpeedGustMPH,Humidity,HourlyPrecipIn,Conditions,Clouds,dailyrainin,SoftwareType,DateUTC
2013-07-28 00:02:00,57.6,36.9,28.67,WNW,302,1.0,0.0,46,0.00,,,-99.99,FreeWX-Wi 1.01,2013-07-28 05:02:00,
2013-07-28 00:07:00,57.6,36.9,28.67,WNW,302,1.0,0.0,46,0.00,,,-99.99,FreeWX-Wi 1.01,2013-07-28 05:07:00,
2013-07-28 00:12:00,57.7,37.0,28.67,WNW,302,1.0,0.0,46,0.00,,,-99.99,FreeWX-Wi 1.01,2013-07-28 05:12:00,
2013-07-28 00:17:00,57.7,37.0,28.67,WNW,302,1.0,0.0,46,0.00,,,-99.99,FreeWX-Wi 1.01,2013-07-28 05:17:00,
2013-07-28 00:22:00,57.6,37.4,28.67,WNW,302,1.0,0.0,47,0.00,,,-99.99,FreeWX-Wi 1.01,2013-07-28 05:22:00,
2013-07-28 00:27:00,57.6,37.4,28.67,WNW,302,1.0,0.0,47,0.00,,,-99.99,FreeWX-Wi 1.01,2013-07-28 05:27:00,
2013-07-28 00:32:00,57.6,37.4,28.67,WNW,302,1.0,0.0,47,0.00,,,-99.99,FreeWX-Wi 1.01,2013-07-28 05:32:00,
2013-07-28 00:37:00,57.6,37.4,28.67,WNW,302,1.0,0.0,47,0.00,,,-99.99,FreeWX-Wi 1.01,2013-07-28 05:37:00,
2013-07-28 00:42:00,57.4,37.4,28.67,WNW,302,1.0,0.0,47,0.00,,,-99.99,FreeWX-Wi 1.01,2013-07-28 05:42:00,
2013-07-28 00:47:00,57.4,38.3,28.67,WNW,302,1.0,0.0,49,0.00,,,-99.99,FreeWX-Wi 1.01,2013-07-28 05:47:00,
2013-07-28 00:52:00,57.4,37.9,28.67,WNW,302,1.0,0.0,48,0.00,,,-99.99,FreeWX-Wi 1.01,2013-07-28 05:52:00,
2013-07-28 00:57:00,57.2,38.3,28.67,WNW,302,1.0,0.0,49,0.00,,,-99.99,FreeWX-Wi 1.01,2013-07-28 05:57:00,
2013-07-28 01:02:00,56.8,38.5,28.67,WNW,302,1.0,0.0,50,0.00,,,-99.99,FreeWX-Wi 1.01,2013-07-28 06:02:00,
2013-07-28 01:07:00,56.5,39.0,28.67,WNW,302,1.0,0.0,52,0.00,,,-99.99,FreeWX-Wi 1.01,2013-07-28 06:07:00,
2013-07-28 01:12:00,56.1,39.7,28.67,WNW,302,1.0,0.0,54,0.00,,,-99.99,FreeWX-Wi 1.01,2013-07-28 06:12:00,
2013-07-28 01:17:00,55.6,40.6,28.67,WNW,302,1.0,0.0,57,0.00,,,-99.99,FreeWX-Wi 1.01,2013-07-28 06:17:00,
2013-07-28 01:22:00,55.2,40.6,28.67,WNW,302,1.0,0.0,58,0.00,,,-99.99,FreeWX-Wi 1.01,2013-07-28 06:22:00,
2013-07-28 01:27:00,54.7,41.0,28.67,WNW,302,1.0,0.0,60,0.00,,,-99.99,FreeWX-Wi 1.01,2013-07-28 06:27:00,
2013-07-28 01:32:00,54.3,41.5,28.67,WNW,302,1.0,0.0,62,0.00,,,-99.99,FreeWX-Wi 1.01,2013-07-28 06:32:00,
2013-07-28 01:37:00,54.0,42.1,28.67,WNW,302,1.0,0.0,64,0.00,,,-99.99,FreeWX-Wi 1.01,2013-07-28 06:37:00,
2013-07-28 01:42:00,53.6,42.1,28.67,WNW,302,1.0,0.0,65,0.00,,,-99.99,FreeWX-Wi 1.01,2013-07-28 06:42:00,
2013-07-28 01:47:00,53.2,42.6,28.67,WNW,302,1.0,0.0,67,0.00,,,-99.99,FreeWX-Wi 1.01,2013-07-28 06:47:00,
2013-07-28 01:52:00,53.2,43.0,28.67,WNW,302,1.0,0.0,68,0.00,,,-99.99,FreeWX-Wi 1.01,2013-07-28 06:52:00,
2013-07-28 01:57:00,53.2,43.3,28.67,WNW,302,1.0,0.0,69,0.00,,,-99.99,FreeWX-Wi 1.01,2013-07-28 06:57:00,
2013-07-28 02:02:00,53.1,43.2,28.67,WNW,302,1.0,0.0,69,0.00,,,-99.99,FreeWX-Wi 1.01,2013-07-28 07:02:00,
2013-07-28 02:07:00,53.1,43.2,28.67,WNW,302,1.0,0.0,69,0.00,,,-99.99,FreeWX-Wi 1.01,2013-07-28 07:07:00,
2013-07-28 02:12:00,53.2,43.3,28.67,WNW,302,1.0,0.0,69,0.00,,,-99.99,FreeWX-Wi 1.01,2013-07-28 07:12:00,
2013-07-28 02:17:00,53.2,44.1,28.67,WNW,302,1.0,0.0,71,0.00,,,-99.99,FreeWX-Wi 1.01,2013-07-28 07:17:00,
2013-07-28 02:22:00,53.2,44.4,28.70,WNW,302,1.0,0.0,72,0.00,,,-99.99,FreeWX-Wi 1.01,2013-07-28 07:22:00,
2013-07-28 02:27:00,53.2,44.1,28.70,WNW,302,1.0,0.0,71,0.00,,,-99.99,FreeWX-Wi 1.01,2013-07-28 07:27:00,
2013-07-28 02:32:00,53.2,44.1,28.67,WNW,302,1.0,0.0,71,0.00,,,-99.99,FreeWX-Wi 1.01,2013-07-28 07:32:00,
2013-07-28 02:37:00,53.1,43.2,28.67,WNW,302,1.0,0.0,69,0.00,,,-99.99,FreeWX-Wi 1.01,2013-07-28 07:37:00,
2013-07-28 02:42:00,52.9,42.6,28.67,WNW,302,1.0,0.0,68,0.00,,,-99.99,FreeWX-Wi 1.01,2013-07-28 07:42:00,
2013-07-28 02:47:00,52.5,42.3,28.67,WNW,302,1.0,0.0,68,0.00,,,-99.99,FreeWX-Wi 1.01,2013-07-28 07:47:00,
2013-07-28 02:52:00,52.2,41.9,28.67,WNW,302,1.0,0.0,68,0.00,,,-99.99,FreeWX-Wi 1.01,2013-07-28 07:52:00,
2013-07-28 02:57:00,52.0,41.7,28.67,WNW,302,1.0,0.0,68,0.00,,,-99.99,FreeWX-Wi 1.01,2013-07-28 07:57:00,
2013-07-28 03:02:00,51.6,41.7,28.67,WNW,302,1.0,0.0,69,0.00,,,-99.99,FreeWX-Wi 1.01,2013-07-28 08:02:00,
2013-07-28 03:07:00,51.4,41.5,28.67,WNW,302,1.0,0.0,69,0.00,,,-99.99,FreeWX-Wi 1.01,2013-07-28 08:07:00,
2013-07-28 03:12:00,51.1,41.7,28.67,WNW,302,1.0,0.0,70,0.00,,,-99.99,FreeWX-Wi 1.01,2013-07-28 08:12:00,
2013-07-28 03:17:00,50.9,41.5,28.70,WNW,302,1.0,0.0,70,0.00,,,-99.99,FreeWX-Wi 1.01,2013-07-28 08:17:00,
2013-07-28 03:22:00,50.5,41.2,28.70,WNW,302,1.0,0.0,70,0.00,,,-99.99,FreeWX-Wi 1.01,2013-07-28 08:22:00,
2013-07-28 03:27:00,50.4,41.4,28.70,WNW,302,1.0,0.0,71,0.00,,,-99.99,FreeWX-Wi 1.01,2013-07-28 08:27:00,
2013-07-28 03:32:00,50.2,41.2,28.67,WNW,302,1.0,0.0,71,0.00,,,-99.99,FreeWX-Wi 1.01,2013-07-28 08:32:00,
2013-07-28 03:37:00,50.0,41.0,28.67,WNW,302,1.0,0.0,71,0.00,,,-99.99,FreeWX-Wi 1.01,2013-07-28 08:37:00,
2013-07-28 03:42:00,49.8,41.2,28.67,WNW,302,1.0,0.0,72,0.00,,,-99.99,FreeWX-Wi 1.01,2013-07-28 08:42:00,
2013-07-28 03:47:00,49.6,41.0,28.67,WNW,302,1.0,0.0,72,0.00,,,-99.99,FreeWX-Wi 1.01,2013-07-28 08:47:00,
2013-07-28 03:52:00,49.5,41.2,28.67,WNW,302,1.0,0.0,73,0.00,,,-99.99,FreeWX-Wi 1.01,2013-07-28 08:52:00,
2013-07-28 03:57:00,49.1,41.2,28.67,WNW,302,1.0,0.0,74,0.00,,,-99.99,FreeWX-Wi 1.01,2013-07-28 08:57:00,
2013-07-28 04:02:00,49.1,41.2,28.67,WNW,302,1.0,0.0,74,0.00,,,-99.99,FreeWX-Wi 1.01,2013-07-28 09:02:00,
2013-07-28 04:07:00,48.9,41.4,28.67,WNW,302,1.0,0.0,75,0.00,,,-99.99,FreeWX-Wi 1.01,2013-07-28 09:07:00,
2013-07-28 04:12:00,48.7,41.5,28.67,WNW,302,1.0,0.0,76,0.00,,,-99.99,FreeWX-Wi 1.01,2013-07-28 09:12:00,
2013-07-28 04:17:00,48.6,41.4,28.67,WNW,302,1.0,0.0,76,0.00,,,-99.99,FreeWX-Wi 1.01,2013-07-28 09:17:00,
2013-07-28 04:22:00,48.4,41.9,28.67,WNW,302,1.0,0.0,78,0.00,,,-99.99,FreeWX-Wi 1.01,2013-07-28 09:22:00,
2013-07-28 04:27:00,48.4,42.3,28.67,WNW,302,1.0,0.0,79,0.00,,,-99.99,FreeWX-Wi 1.01,2013-07-28 09:27:00,
2013-07-28 04:32:00,48.4,43.2,28.67,WNW,302,1.0,0.0,82,0.00,,,-99.99,FreeWX-Wi 1.01,2013-07-28 09:32:00,
2013-07-28 04:37:00,48.2,43.0,28.67,WNW,302,1.0,0.0,82,0.00,,,-99.99,FreeWX-Wi 1.01,2013-07-28 09:37:00,
2013-07-28 04:42:00,48.2,43.3,28.67,WNW,302,1.0,0.0,83,0.00,,,-99.99,FreeWX-Wi 1.01,2013-07-28 09:42:00,
2013-07-28 04:47:00,48.0,42.4,28.70,WNW,302,1.0,0.0,81,0.00,,,-99.99,FreeWX-Wi 1.01,2013-07-28 09:47:00,
2013-07-28 04:52:00,47.8,42.6,28.70,WNW,302,1.0,0.0,82,0.00,,,-99.99,FreeWX-Wi 1.01,2013-07-28 09:52:00,
2013-07-28 04:57:00,47.8,42.6,28.70,WNW,302,1.0,0.0,82,0.00,,,-99.99,FreeWX-Wi 1.01,2013-07-28 09:57:00,
2013-07-28 05:02:00,47.8,43.0,28.70,WNW,302,1.0,0.0,83,0.00,,,-99.99,FreeWX-Wi 1.01,2013-07-28 10:02:00,
2013-07-28 05:07:00,47.7,42.1,28.70,WNW,302,1.0,0.0,81,0.00,,,-99.99,FreeWX-Wi 1.01,2013-07-28 10:07:00,
2013-07-28 05:17:00,47.5,42.3,28.70,WNW,302,1.0,0.0,82,0.00,,,-99.99,FreeWX-Wi 1.01,2013-07-28 10:17:00,
2013-07-28 05:27:00,47.1,41.9,28.70,WNW,302,1.0,0.0,82,0.00,,,-99.99,FreeWX-Wi 1.01,2013-07-28 10:27:00,
2013-07-28 05:32:00,46.9,41.4,28.70,WNW,302,1.0,0.0,81,0.00,,,-99.99,FreeWX-Wi 1.01,2013-07-28 10:32:00,
2013-07-28 05:37:00,46.9,41.4,28.70,WNW,302,1.0,0.0,81,0.00,,,-99.99,FreeWX-Wi 1.01,2013-07-28 10:37:00,
2013-07-28 05:42:00,47.1,42.3,28.70,WNW,302,1.0,0.0,83,0.00,,,-99.99,FreeWX-Wi 1.01,2013-07-28 10:42:00,
2013-07-28 05:47:00,47.1,42.8,28.70,WNW,302,1.0,0.0,85,0.00,,,-99.99,FreeWX-Wi 1.01,2013-07-28 10:47:00,
2013-07-28 05:57:00,47.3,43.3,28.70,WNW,302,1.0,0.0,86,0.00,,,-99.99,FreeWX-Wi 1.01,2013-07-28 10:57:00,
2013-07-28 06:02:00,47.3,43.3,28.70,WNW,302,1.0,0.0,86,0.00,,,-99.99,FreeWX-Wi 1.01,2013-07-28 11:02:00,
2013-07-28 06:07:00,48.0,44.1,28.70,WNW,302,1.0,0.0,86,0.00,,,-99.99,FreeWX-Wi 1.01,2013-07-28 11:07:00,
2013-07-28 06:12:00,48.4,44.1,28.70,WNW,302,1.0,0.0,85,0.00,,,-99.99,FreeWX-Wi 1.01,2013-07-28 11:12:00,
2013-07-28 06:17:00,48.2,43.0,28.70,WNW,302,1.0,0.0,82,0.00,,,-99.99,FreeWX-Wi 1.01,2013-07-28 11:17:00,
2013-07-28 06:22:00,50.4,42.8,28.70,WNW,302,1.0,0.0,75,0.00,,,-99.99,FreeWX-Wi 1.01,2013-07-28 11:22:00,
2013-07-28 06:27:00,52.2,41.2,28.70,WNW,302,1.0,0.0,66,0.00,,,-99.99,FreeWX-Wi 1.01,2013-07-28 11:27:00,
2013-07-28 06:32:00,51.6,39.9,28.70,WNW,302,1.0,0.0,64,0.00,,,-99.99,FreeWX-Wi 1.01,2013-07-28 11:32:00,
2013-07-28 06:42:00,49.3,39.9,28.70,WNW,302,1.0,0.0,70,0.00,,,-99.99,FreeWX-Wi 1.01,2013-07-28 11:42:00,
2013-07-28 06:47:00,49.3,40.6,28.70,WNW,302,1.0,0.0,72,0.00,,,-99.99,FreeWX-Wi 1.01,2013-07-28 11:47:00,
2013-07-28 06:56:00,50.0,41.7,28.73,WNW,302,1.0,0.0,73,0.00,,,-99.99,FreeWX-Wi 1.01,2013-07-28 11:56:00,
2013-07-28 07:01:00,50.4,41.4,28.73,North,-999,0.0,0.0,71,0.00,,,-99.99,FreeWX-Wi 1.01,2013-07-28 12:01:00,
2013-07-28 07:12:00,51.3,41.9,28.70,North,-999,0.0,0.0,70,0.00,,,-99.99,FreeWX-Wi 1.01,2013-07-28 12:12:00,
2013-07-28 07:17:00,51.6,41.4,28.70,North,-999,0.0,0.0,68,0.00,,,-99.99,FreeWX-Wi 1.01,2013-07-28 12:17:00,
2013-07-28 07:22:00,51.8,41.5,28.70,North,-999,0.0,0.0,68,0.00,,,-99.99,FreeWX-Wi 1.01,2013-07-28 12:22:00,
2013-07-28 07:27:00,52.0,41.4,28.70,North,-999,0.0,0.0,67,0.00,,,-99.99,FreeWX-Wi 1.01,2013-07-28 12:27:00,
2013-07-28 07:32:00,52.2,41.5,28.70,North,-999,0.0,0.0,67,0.00,,,-99.99,FreeWX-Wi 1.01,2013-07-28 12:32:00,
2013-07-28 07:37:00,52.7,42.1,28.70,North,-999,0.0,0.0,67,0.00,,,-99.99,FreeWX-Wi 1.01,2013-07-28 12:37:00,
2013-07-28 07:42:00,53.1,41.2,28.70,North,-999,0.0,0.0,64,0.00,,,-99.99,FreeWX-Wi 1.01,2013-07-28 12:42:00,
2013-07-28 07:47:00,53.1,41.5,28.70,North,-999,0.0,0.0,65,0.00,,,-99.99,FreeWX-Wi 1.01,2013-07-28 12:47:00,
2013-07-28 07:52:00,53.1,41.2,28.70,North,-999,0.0,2.7,64,0.00,,,-99.99,FreeWX-Wi 1.01,2013-07-28 12:52:00,
2013-07-28 07:57:00,53.2,41.7,28.70,North,-999,0.0,0.0,65,0.00,,,-99.99,FreeWX-Wi 1.01,2013-07-28 12:57:00,
2013-07-28 08:02:00,53.8,41.5,28.70,North,-999,0.0,2.7,63,0.00,,,-99.99,FreeWX-Wi 1.01,2013-07-28 13:02:00,
2013-07-28 08:07:00,54.0,41.7,28.70,North,-999,0.0,0.0,63,0.00,,,-99.99,FreeWX-Wi 1.01,2013-07-28 13:07:00,
2013-07-28 08:12:00,54.3,41.2,28.70,North,-999,0.0,3.6,61,0.00,,,-99.99,FreeWX-Wi 1.01,2013-07-28 13:12:00,
2013-07-28 08:17:00,54.7,41.5,28.70,North,-999,0.0,0.0,61,0.00,,,-99.99,FreeWX-Wi 1.01,2013-07-28 13:17:00,
2013-07-28 08:22:00,57.0,40.5,28.70,North,-999,0.0,0.0,54,0.00,,,-99.99,FreeWX-Wi 1.01,2013-07-28 13:22:00,
2013-07-28 08:27:00,58.8,40.3,28.70,North,-999,0.0,0.0,50,0.00,,,-99.99,FreeWX-Wi 1.01,2013-07-28 13:27:00,
2013-07-28 08:32:00,59.2,38.5,28.70,North,-999,0.0,0.0,46,0.00,,,-99.99,FreeWX-Wi 1.01,2013-07-28 13:32:00,
2013-07-28 08:37:00,58.3,39.2,28.70,North,-999,0.0,3.1,49,0.00,,,-99.99,FreeWX-Wi 1.01,2013-07-28 13:37:00,
2013-07-28 08:47:00,58.5,39.9,28.73,North,-999,0.0,0.0,50,0.00,,,-99.99,FreeWX-Wi 1.01,2013-07-28 13:47:00,
2013-07-28 08:52:00,58.6,37.9,28.73,North,-999,0.0,0.0,46,0.00,,,-99.99,FreeWX-Wi 1.01,2013-07-28 13:52:00,
2013-07-28 08:57:00,57.7,37.0,28.73,North,-999,0.0,0.0,46,0.00,,,-99.99,FreeWX-Wi 1.01,2013-07-28 13:57:00,
2013-07-28 09:02:00,57.9,36.7,28.73,North,-999,0.0,0.0,45,0.00,,,-99.99,FreeWX-Wi 1.01,2013-07-28 14:02:00,
2013-07-28 09:12:00,59.0,37.8,28.73,North,-999,0.0,0.0,45,0.00,,,-99.99,FreeWX-Wi 1.01,2013-07-28 14:12:00,
2013-07-28 09:17:00,59.5,36.5,28.73,North,-999,0.0,0.0,42,0.00,,,-99.99,FreeWX-Wi 1.01,2013-07-28 14:17:00,
2013-07-28 09:22:00,59.9,38.5,28.73,North,-999,0.0,0.0,45,0.00,,,-99.99,FreeWX-Wi 1.01,2013-07-28 14:22:00,
2013-07-28 09:27:00,60.3,38.3,28.73,North,-999,0.0,0.0,44,0.00,,,-99.99,FreeWX-Wi 1.01,2013-07-28 14:27:00,
2013-07-28 09:32:00,60.4,39.0,28.73,North,-999,0.0,0.0,45,0.00,,,-99.99,FreeWX-Wi 1.01,2013-07-28 14:32:00,
2013-07-28 09:37:00,60.6,37.4,28.73,North,-999,0.0,0.0,42,0.00,,,-99.99,FreeWX-Wi 1.01,2013-07-28 14:37:00,
2013-07-28 09:42:00,60.8,36.3,28.73,North,-999,0.0,0.0,40,0.00,,,-99.99,FreeWX-Wi 1.01,2013-07-28 14:42:00,
2013-07-28 09:47:00,61.7,39.6,28.73,North,-999,0.0,0.0,44,0.00,,,-99.99,FreeWX-Wi 1.01,2013-07-28 14:47:00,
2013-07-28 09:52:00,61.7,37.2,28.73,North,-999,0.0,0.0,40,0.00,,,-99.99,FreeWX-Wi 1.01,2013-07-28 14:52:00,
2013-07-28 09:57:00,62.1,39.4,28.73,North,-999,0.0,0.0,43,0.00,,,-99.99,FreeWX-Wi 1.01,2013-07-28 14:57:00,
2013-07-28 10:02:00,63.3,38.7,28.73,North,-999,0.0,0.0,40,0.00,,,-99.99,FreeWX-Wi 1.01,2013-07-28 15:02:00,
2013-07-28 10:12:00,62.6,38.5,28.73,North,-999,0.0,0.0,41,0.00,,,-99.99,FreeWX-Wi 1.01,2013-07-28 15:12:00,
2013-07-28 10:22:00,61.7,37.8,28.73,North,-999,0.0,0.0,41,0.00,,,-99.99,FreeWX-Wi 1.01,2013-07-28 15:22:00,
2013-07-28 10:27:00,61.7,37.8,28.73,North,-999,0.0,0.0,41,0.00,,,-99.99,FreeWX-Wi 1.01,2013-07-28 15:27:00,
2013-07-28 10:32:00,61.7,38.3,28.73,North,-999,0.0,0.0,42,0.00,,,-99.99,FreeWX-Wi 1.01,2013-07-28 15:32:00,
2013-07-28 10:37:00,62.2,36.3,28.73,North,-999,0.0,0.0,38,0.00,,,-99.99,FreeWX-Wi 1.01,2013-07-28 15:37:00,
2013-07-28 10:47:00,62.6,37.9,28.73,North,-999,0.0,0.0,40,0.00,,,-99.99,FreeWX-Wi 1.01,2013-07-28 15:47:00,
2013-07-28 10:52:00,62.6,39.2,28.73,North,-999,0.0,0.0,42,0.00,,,-99.99,FreeWX-Wi 1.01,2013-07-28 15:52:00,
2013-07-28 10:57:00,60.8,35.1,28.73,North,-999,0.0,0.0,38,0.00,,,-99.99,FreeWX-Wi 1.01,2013-07-28 15:57:00,
2013-07-28 11:07:00,63.0,37.6,28.73,North,-999,0.0,0.0,39,0.00,,,-99.99,FreeWX-Wi 1.01,2013-07-28 16:07:00,
2013-07-28 11:12:00,63.1,37.8,28.73,North,-999,0.0,0.0,39,0.00,,,-99.99,FreeWX-Wi 1.01,2013-07-28 16:12:00,
2013-07-28 11:17:00,63.3,36.7,28.73,North,-999,0.0,0.0,37,0.00,,,-99.99,FreeWX-Wi 1.01,2013-07-28 16:17:00,
2013-07-28 11:22:00,64.0,37.9,28.73,North,-999,0.0,0.0,38,0.00,,,-99.99,FreeWX-Wi 1.01,2013-07-28 16:22:00,
2013-07-28 11:27:00,64.0,40.5,28.73,North,-999,0.0,0.0,42,0.00,,,-99.99,FreeWX-Wi 1.01,2013-07-28 16:27:00,
2013-07-28 11:32:00,63.5,36.1,28.73,North,-999,0.0,0.0,36,0.00,,,-99.99,FreeWX-Wi 1.01,2013-07-28 16:32:00,
2013-07-28 11:42:00,64.6,37.0,28.73,North,-999,0.0,0.0,36,0.00,,,-99.99,FreeWX-Wi 1.01,2013-07-28 16:42:00,
2013-07-28 11:52:00,63.9,38.5,28.73,North,-999,0.0,0.0,39,0.00,,,-99.99,FreeWX-Wi 1.01,2013-07-28 16:52:00,
2013-07-28 11:57:00,64.6,38.5,28.73,North,-999,0.0,0.0,38,0.00,,,-99.99,FreeWX-Wi 1.01,2013-07-28 16:57:00,
2013-07-28 12:02:00,64.2,38.1,28.73,North,-999,0.0,0.0,38,0.00,,,-99.99,FreeWX-Wi 1.01,2013-07-28 17:02:00,
2013-07-28 12:07:00,61.9,38.5,28.73,North,-999,0.0,0.0,42,0.00,,,-99.99,FreeWX-Wi 1.01,2013-07-28 17:07:00,
2013-07-28 12:12:00,62.2,40.6,28.73,North,-999,0.0,0.0,45,0.00,,,-99.99,FreeWX-Wi 1.01,2013-07-28 17:12:00,
2013-07-28 12:17:00,61.7,37.8,28.73,North,-999,0.0,0.0,41,0.00,,,-99.99,FreeWX-Wi 1.01,2013-07-28 17:17:00,
2013-07-28 12:22:00,62.6,37.9,28.73,North,-999,0.0,0.0,40,0.00,,,-99.99,FreeWX-Wi 1.01,2013-07-28 17:22:00,
2013-07-28 12:27:00,63.7,36.1,28.73,North,-999,0.0,0.0,36,0.00,,,-99.99,FreeWX-Wi 1.01,2013-07-28 17:27:00,
2013-07-28 12:32:00,63.7,39.6,28.73,North,-999,0.0,0.0,41,0.00,,,-99.99,FreeWX-Wi 1.01,2013-07-28 17:32:00,
2013-07-28 12:37:00,64.9,38.7,28.73,North,-999,0.0,0.0,38,0.00,,,-99.99,FreeWX-Wi 1.01,2013-07-28 17:37:00,
2013-07-28 12:42:00,65.5,39.2,28.73,North,-999,0.0,0.0,38,0.00,,,-99.99,FreeWX-Wi 1.01,2013-07-28 17:42:00,
2013-07-28 12:47:00,64.8,39.9,28.73,North,-999,0.0,0.0,40,0.00,,,-99.99,FreeWX-Wi 1.01,2013-07-28 17:47:00,
2013-07-28 12:52:00,65.1,40.3,28.73,North,-999,0.0,0.0,40,0.00,,,-99.99,FreeWX-Wi 1.01,2013-07-28 17:52:00,
2013-07-28 12:57:00,64.2,36.7,28.73,North,-999,0.0,0.0,36,0.00,,,-99.99,FreeWX-Wi 1.01,2013-07-28 17:57:00,
2013-07-28 13:02:00,64.8,41.2,28.73,North,-999,0.0,0.0,42,0.00,,,-99.99,FreeWX-Wi 1.01,2013-07-28 18:02:00,
2013-07-28 13:07:00,65.1,40.3,28.73,North,-999,0.0,0.0,40,0.00,,,-99.99,FreeWX-Wi 1.01,2013-07-28 18:07:00,
2013-07-28 13:12:00,65.5,41.7,28.73,North,-999,0.0,0.0,42,0.00,,,-99.99,FreeWX-Wi 1.01,2013-07-28 18:12:00,
2013-07-28 13:17:00,66.0,38.3,28.73,North,-999,0.0,0.0,36,0.00,,,-99.99,FreeWX-Wi 1.01,2013-07-28 18:17:00,
2013-07-28 13:22:00,66.2,40.5,28.73,North,-999,0.0,0.0,39,0.00,,,-99.99,FreeWX-Wi 1.01,2013-07-28 18:22:00,
2013-07-28 13:32:00,67.1,42.6,28.73,North,-999,0.0,0.0,41,0.00,,,-99.99,FreeWX-Wi 1.01,2013-07-28 18:32:00,
2013-07-28 13:37:00,68.0,38.7,28.73,North,-999,0.0,0.0,34,0.00,,,-99.99,FreeWX-Wi 1.01,2013-07-28 18:37:00,
2013-07-28 13:47:00,68.4,38.1,28.73,North,-999,0.0,0.0,33,0.00,,,-99.99,FreeWX-Wi 1.01,2013-07-28 18:47:00,
2013-07-28 13:52:00,68.4,39.6,28.73,North,-999,0.0,0.0,35,0.00,,,-99.99,FreeWX-Wi 1.01,2013-07-28 18:52:00,
2013-07-28 13:57:00,67.6,41.7,28.73,North,-999,0.0,0.0,39,0.00,,,-99.99,FreeWX-Wi 1.01,2013-07-28 18:57:00,
2013-07-28 14:02:00,68.4,41.0,28.73,North,-999,0.0,0.0,37,0.00,,,-99.99,FreeWX-Wi 1.01,2013-07-28 19:02:00,
2013-07-28 14:07:00,67.8,40.6,28.73,North,-999,0.0,0.0,37,0.00,,,-99.99,FreeWX-Wi 1.01,2013-07-28 19:07:00,
2013-07-28 14:12:00,68.5,41.2,28.73,North,-999,0.0,0.0,37,0.00,,,-99.99,FreeWX-Wi 1.01,2013-07-28 19:12:00,
2013-07-28 14:17:00,68.5,40.5,28.73,North,-999,0.0,0.0,36,0.00,,,-99.99,FreeWX-Wi 1.01,2013-07-28 19:17:00,
2013-07-28 14:22:00,68.4,39.6,28.73,North,-999,0.0,0.0,35,0.00,,,-99.99,FreeWX-Wi 1.01,2013-07-28 19:22:00,
2013-07-28 14:32:00,69.8,40.8,28.73,North,-999,0.0,0.0,35,0.00,,,-99.99,FreeWX-Wi 1.01,2013-07-28 19:32:00,
2013-07-28 14:37:00,70.3,39.9,28.73,North,-999,0.0,0.0,33,0.00,,,-99.99,FreeWX-Wi 1.01,2013-07-28 19:37:00,
2013-07-28 14:42:00,70.2,39.7,28.73,North,-999,0.0,0.0,33,0.00,,,-99.99,FreeWX-Wi 1.01,2013-07-28 19:42:00,
2013-07-28 14:47:00,69.6,39.2,28.73,North,-999,0.0,0.0,33,0.00,,,-99.99,FreeWX-Wi 1.01,2013-07-28 19:47:00,
2013-07-28 14:52:00,70.2,40.5,28.73,North,-999,0.0,0.0,34,0.00,,,-99.99,FreeWX-Wi 1.01,2013-07-28 19:52:00,
2013-07-28 14:57:00,69.8,38.7,28.73,North,-999,0.0,0.0,32,0.00,,,-99.99,FreeWX-Wi 1.01,2013-07-28 19:57:00,
2013-07-28 15:02:00,70.5,42.3,28.73,North,-999,0.0,0.0,36,0.00,,,-99.99,FreeWX-Wi 1.01,2013-07-28 20:02:00,
2013-07-28 15:07:00,70.9,41.2,28.73,North,-999,0.0,0.0,34,0.00,,,-99.99,FreeWX-Wi 1.01,2013-07-28 20:07:00,
2013-07-28 15:18:00,72.0,41.4,28.73,North,-999,0.0,0.0,33,0.00,,,-99.99,FreeWX-Wi 1.01,2013-07-28 20:18:00,
2013-07-28 15:23:00,72.3,41.5,28.73,North,-999,0.0,0.0,33,0.00,,,-99.99,FreeWX-Wi 1.01,2013-07-28 20:23:00,
2013-07-28 15:33:00,72.5,41.0,28.73,North,-999,0.0,0.0,32,0.00,,,-99.99,FreeWX-Wi 1.01,2013-07-28 20:33:00,
2013-07-28 15:37:00,72.3,39.9,28.73,North,-999,0.0,0.0,31,0.00,,,-99.99,FreeWX-Wi 1.01,2013-07-28 20:37:00,
2013-07-28 15:47:00,72.0,40.5,28.73,North,-999,0.0,5.8,32,0.00,,,-99.99,FreeWX-Wi 1.01,2013-07-28 20:47:00,
2013-07-28 15:52:00,72.1,41.4,28.73,North,-999,0.0,6.7,33,0.00,,,-99.99,FreeWX-Wi 1.01,2013-07-28 20:52:00,
2013-07-28 15:57:00,72.1,39.7,28.73,WNW,296,1.0,6.3,31,0.00,,,-99.99,FreeWX-Wi 1.01,2013-07-28 20:57:00,
2013-07-28 16:02:00,72.3,39.9,28.76,WNW,295,1.0,5.8,31,0.00,,,-99.99,FreeWX-Wi 1.01,2013-07-28 21:02:00,
2013-07-28 16:07:00,71.4,40.1,28.76,WNW,299,1.0,8.3,32,0.00,,,-99.99,FreeWX-Wi 1.01,2013-07-28 21:07:00,
2013-07-28 16:12:00,72.0,41.4,28.76,WNW,298,1.0,5.4,33,0.00,,,-99.99,FreeWX-Wi 1.01,2013-07-28 21:12:00,
2013-07-28 16:17:00,72.1,39.7,28.73,NW,307,2.0,8.1,31,0.00,,,-99.99,FreeWX-Wi 1.01,2013-07-28 21:17:00,
2013-07-28 16:22:00,71.8,40.3,28.73,NW,316,2.0,6.3,32,0.00,,,-99.99,FreeWX-Wi 1.01,2013-07-28 21:22:00,
2013-07-28 16:27:00,72.0,38.8,28.73,NW,324,2.0,4.0,30,0.00,,,-99.99,FreeWX-Wi 1.01,2013-07-28 21:27:00,
2013-07-28 16:32:00,71.2,39.9,28.73,NNW,328,2.0,5.4,32,0.00,,,-99.99,FreeWX-Wi 1.01,2013-07-28 21:32:00,
2013-07-28 16:37:00,71.4,40.1,28.73,NNW,328,2.0,0.0,32,0.00,,,-99.99,FreeWX-Wi 1.01,2013-07-28 21:37:00,
2013-07-28 16:42:00,72.0,40.5,28.73,NNW,328,2.0,0.0,32,0.00,,,-99.99,FreeWX-Wi 1.01,2013-07-28 21:42:00,
2013-07-28 16:47:00,72.1,39.0,28.73,NNW,328,2.0,0.0,30,0.00,,,-99.99,FreeWX-Wi 1.01,2013-07-28 21:47:00,
2013-07-28 16:52:00,72.1,39.7,28.73,NNW,329,3.0,5.8,31,0.00,,,-99.99,FreeWX-Wi 1.01,2013-07-28 21:52:00,
2013-07-28 16:57:00,72.1,41.4,28.73,NNW,329,3.0,0.0,33,0.00,,,-99.99,FreeWX-Wi 1.01,2013-07-28 21:57:00,
2013-07-28 17:02:00,72.3,40.8,28.73,NNW,329,3.0,0.0,32,0.00,,,-99.99,FreeWX-Wi 1.01,2013-07-28 22:02:00,
2013-07-28 17:07:00,72.0,37.9,28.73,NNW,329,3.0,0.0,29,0.00,,,-99.99,FreeWX-Wi 1.01,2013-07-28 22:07:00,
2013-07-28 17:17:00,72.1,40.6,28.73,NNW,329,3.0,0.0,32,0.00,,,-99.99,FreeWX-Wi 1.01,2013-07-28 22:17:00,
2013-07-28 17:22:00,72.5,41.0,28.73,NNW,330,3.0,5.4,32,0.00,,,-99.99,FreeWX-Wi 1.01,2013-07-28 22:22:00,
2013-07-28 17:27:00,72.9,42.1,28.73,NNW,335,3.0,6.3,33,0.00,,,-99.99,FreeWX-Wi 1.01,2013-07-28 22:27:00,
2013-07-28 17:32:00,73.0,41.4,28.73,NNW,335,3.0,6.7,32,0.00,,,-99.99,FreeWX-Wi 1.01,2013-07-28 22:32:00,
2013-07-28 17:37:00,73.2,41.5,28.73,NNW,334,3.0,6.3,32,0.00,,,-99.99,FreeWX-Wi 1.01,2013-07-28 22:37:00,
2013-07-28 17:42:00,73.9,42.3,28.73,NNW,335,3.0,5.4,32,0.00,,,-99.99,FreeWX-Wi 1.01,2013-07-28 22:42:00,
2013-07-28 17:47:00,73.4,39.2,28.76,NNW,338,3.0,6.3,29,0.00,,,-99.99,FreeWX-Wi 1.01,2013-07-28 22:47:00,
2013-07-28 17:52:00,73.8,39.6,28.76,NNW,337,3.0,4.9,29,0.00,,,-99.99,FreeWX-Wi 1.01,2013-07-28 22:52:00,
2013-07-28 18:02:00,76.6,40.1,28.76,NNW,340,3.0,6.7,27,0.00,,,-99.99,FreeWX-Wi 1.01,2013-07-28 23:02:00,
2013-07-28 18:07:00,76.8,40.3,28.76,NNW,344,3.0,5.8,27,0.00,,,-99.99,FreeWX-Wi 1.01,2013-07-28 23:07:00,
2013-07-28 18:12:00,76.5,37.9,28.76,NNW,342,3.0,4.0,25,0.00,,,-99.99,FreeWX-Wi 1.01,2013-07-28 23:12:00,
2013-07-28 18:17:00,78.1,38.3,28.76,NNW,341,3.0,5.4,24,0.00,,,-99.99,FreeWX-Wi 1.01,2013-07-28 23:17:00,
2013-07-28 18:22:00,78.8,35.6,28.76,NNW,339,3.0,7.6,21,0.00,,,-99.99,FreeWX-Wi 1.01,2013-07-28 23:22:00,
2013-07-28 18:27:00,80.2,37.9,28.76,NNW,340,3.0,6.3,22,0.00,,,-99.99,FreeWX-Wi 1.01,2013-07-28 23:27:00,
2013-07-28 18:32:00,79.3,36.0,28.79,NNW,339,3.0,6.7,21,0.00,,,-99.99,FreeWX-Wi 1.01,2013-07-28 23:32:00,
2013-07-28 18:37:00,79.3,36.0,28.79,NNW,339,3.0,6.3,21,0.00,,,-99.99,FreeWX-Wi 1.01,2013-07-28 23:37:00,
2013-07-28 18:42:00,80.4,38.1,28.79,NNW,330,3.0,4.0,22,0.00,,,-99.99,FreeWX-Wi 1.01,2013-07-28 23:42:00,
2013-07-28 18:47:00,79.3,37.2,28.76,NNW,336,3.0,5.8,22,0.00,,,-99.99,FreeWX-Wi 1.01,2013-07-28 23:47:00,
2013-07-28 18:52:00,79.5,37.4,28.76,NNW,339,3.0,4.9,22,0.00,,,-99.99,FreeWX-Wi 1.01,2013-07-28 23:52:00,
2013-07-28 18:57:00,80.1,36.5,28.76,NNW,337,2.0,5.4,21,0.00,,,-99.99,FreeWX-Wi 1.01,2013-07-28 23:57:00,
2013-07-28 19:02:00,78.3,36.3,28.76,NNW,339,2.0,5.8,22,0.00,,,-99.99,FreeWX-Wi 1.01,2013-07-29 00:02:00,
2013-07-28 19:07:00,77.2,34.2,28.76,NNW,337,2.0,5.4,21,0.00,,,-99.99,FreeWX-Wi 1.01,2013-07-29 00:07:00,
2013-07-28 19:12:00,77.9,36.0,28.76,NNW,341,2.0,4.0,22,0.00,,,-99.99,FreeWX-Wi 1.01,2013-07-29 00:12:00,
2013-07-28 19:17:00,77.4,35.6,28.76,NNW,341,2.0,6.3,22,0.00,,,-99.99,FreeWX-Wi 1.01,2013-07-29 00:17:00,
2013-07-28 19:22:00,76.8,35.1,28.76,NNW,342,2.0,3.6,22,0.00,,,-99.99,FreeWX-Wi 1.01,2013-07-29 00:22:00,
2013-07-28 19:27:00,74.3,35.2,28.76,NNW,343,2.0,5.4,24,0.00,,,-99.99,FreeWX-Wi 1.01,2013-07-29 00:27:00,
2013-07-28 19:32:00,71.6,36.7,28.76,NNW,345,2.0,3.6,28,0.00,,,-99.99,FreeWX-Wi 1.01,2013-07-29 00:32:00,
2013-07-28 19:37:00,69.4,39.0,28.76,NNW,346,2.0,5.4,33,0.00,,,-99.99,FreeWX-Wi 1.01,2013-07-29 00:37:00,
2013-07-28 19:42:00,68.2,39.6,28.76,North,349,2.0,4.0,35,0.00,,,-99.99,FreeWX-Wi 1.01,2013-07-29 00:42:00,
2013-07-28 19:52:00,66.7,39.6,28.76,North,356,2.0,5.4,37,0.00,,,-99.99,FreeWX-Wi 1.01,2013-07-29 00:52:00,
2013-07-28 19:57:00,66.4,39.9,28.76,North,359,2.0,3.6,38,0.00,,,-99.99,FreeWX-Wi 1.01,2013-07-29 00:57:00,
2013-07-28 20:02:00,66.0,40.3,28.76,North,1,2.0,2.7,39,0.00,,,-99.99,FreeWX-Wi 1.01,2013-07-29 01:02:00,
2013-07-28 20:07:00,65.7,41.4,28.76,North,2,2.0,2.7,41,0.00,,,-99.99,FreeWX-Wi 1.01,2013-07-29 01:07:00,
2013-07-28 20:23:00,64.8,42.3,28.76,North,-999,0.0,0.0,44,0.00,,,-99.99,FreeWX-Wi 1.01,2013-07-29 01:23:00,
2013-07-28 20:28:00,64.4,44.2,28.76,North,-999,0.0,0.0,48,0.00,,,-99.99,FreeWX-Wi 1.01,2013-07-29 01:28:00,
2013-07-28 20:33:00,63.9,43.2,28.76,North,-999,0.0,0.0,47,0.00,,,-99.99,FreeWX-Wi 1.01,2013-07-29 01:33:00,
2013-07-28 20:38:00,63.5,43.0,28.76,North,-999,0.0,0.0,47,0.00,,,-99.99,FreeWX-Wi 1.01,2013-07-29 01:38:00,
2013-07-28 20:43:00,63.1,44.8,28.76,North,-999,0.0,0.0,51,0.00,,,-99.99,FreeWX-Wi 1.01,2013-07-29 01:43:00,
2013-07-28 20:48:00,62.6,44.2,28.76,North,-999,0.0,0.0,51,0.00,,,-99.99,FreeWX-Wi 1.01,2013-07-29 01:48:00,
2013-07-28 20:53:00,62.1,44.8,28.76,North,-999,0.0,0.0,53,0.00,,,-99.99,FreeWX-Wi 1.01,2013-07-29 01:53:00,
2013-07-28 20:58:00,61.7,43.9,28.76,North,-999,0.0,0.0,52,0.00,,,-99.99,FreeWX-Wi 1.01,2013-07-29 01:58:00,
2013-07-28 21:03:00,61.5,43.7,28.76,North,-999,0.0,0.0,52,0.00,,,-99.99,FreeWX-Wi 1.01,2013-07-29 02:03:00,
2013-07-28 21:08:00,61.3,44.1,28.76,North,-999,0.0,0.0,53,0.00,,,-99.99,FreeWX-Wi 1.01,2013-07-29 02:08:00,
2013-07-28 21:13:00,61.2,43.9,28.76,North,-999,0.0,0.0,53,0.00,,,-99.99,FreeWX-Wi 1.01,2013-07-29 02:13:00,
2013-07-28 21:18:00,61.2,43.9,28.76,North,-999,0.0,0.0,53,0.00,,,-99.99,FreeWX-Wi 1.01,2013-07-29 02:18:00,
2013-07-28 21:28:00,60.8,44.1,28.76,North,-999,0.0,0.0,54,0.00,,,-99.99,FreeWX-Wi 1.01,2013-07-29 02:28:00,
2013-07-28 21:33:00,60.8,44.1,28.79,North,-999,0.0,0.0,54,0.00,,,-99.99,FreeWX-Wi 1.01,2013-07-29 02:33:00,
2013-07-28 21:38:00,60.6,44.4,28.79,North,-999,0.0,0.0,55,0.00,,,-99.99,FreeWX-Wi 1.01,2013-07-29 02:38:00,
2013-07-28 21:49:00,60.3,44.4,28.79,North,-999,0.0,0.0,56,0.00,,,-99.99,FreeWX-Wi 1.01,2013-07-29 02:49:00,
2013-07-28 21:54:00,60.1,43.3,28.79,North,-999,0.0,0.0,54,0.00,,,-99.99,FreeWX-Wi 1.01,2013-07-29 02:54:00,
2013-07-28 21:59:00,60.1,43.0,28.79,North,-999,0.0,0.0,53,0.00,,,-99.99,FreeWX-Wi 1.01,2013-07-29 02:59:00,
2013-07-28 22:04:00,59.7,43.5,28.79,North,-999,0.0,0.0,55,0.00,,,-99.99,FreeWX-Wi 1.01,2013-07-29 03:04:00,
2013-07-28 22:14:00,58.5,44.6,28.79,North,-999,0.0,0.0,60,0.00,,,-99.99,FreeWX-Wi 1.01,2013-07-29 03:14:00,
2013-07-28 22:19:00,58.5,44.6,28.79,North,-999,0.0,0.0,60,0.00,,,-99.99,FreeWX-Wi 1.01,2013-07-29 03:19:00,
2013-07-28 22:24:00,58.5,45.1,28.79,North,-999,0.0,0.0,61,0.00,,,-99.99,FreeWX-Wi 1.01,2013-07-29 03:24:00,
2013-07-28 22:29:00,58.5,45.1,28.79,North,-999,0.0,0.0,61,0.00,,,-99.99,FreeWX-Wi 1.01,2013-07-29 03:29:00,
2013-07-28 22:39:00,58.5,45.1,28.79,North,-999,0.0,0.0,61,0.00,,,-99.99,FreeWX-Wi 1.01,2013-07-29 03:39:00,
2013-07-28 22:44:00,58.3,44.4,28.79,North,-999,0.0,0.0,60,0.00,,,-99.99,FreeWX-Wi 1.01,2013-07-29 03:44:00,
2013-07-28 22:55:00,58.3,45.0,28.79,North,-999,0.0,0.0,61,0.00,,,-99.99,FreeWX-Wi 1.01,2013-07-29 03:55:00,
2013-07-28 23:00:00,58.3,45.3,28.79,North,-999,0.0,0.0,62,0.00,,,-99.99,FreeWX-Wi 1.01,2013-07-29 04:00:00,
2013-07-28 23:05:00,58.1,45.1,28.79,North,-999,0.0,0.0,62,0.00,,,-99.99,FreeWX-Wi 1.01,2013-07-29 04:05:00,
2013-07-28 23:10:00,57.9,45.0,28.79,North,-999,0.0,0.0,62,0.00,,,-99.99,FreeWX-Wi 1.01,2013-07-29 04:10:00,
2013-07-28 23:15:00,57.9,45.3,28.79,North,-999,0.0,0.0,63,0.00,,,-99.99,FreeWX-Wi 1.01,2013-07-29 04:15:00,
2013-07-28 23:20:00,57.7,45.1,28.79,North,-999,0.0,0.0,63,0.00,,,-99.99,FreeWX-Wi 1.01,2013-07-29 04:20:00,
2013-07-28 23:25:00,57.7,44.8,28.79,North,-999,0.0,0.0,62,0.00,,,-99.99,FreeWX-Wi 1.01,2013-07-29 04:25:00,
2013-07-28 23:30:00,57.7,44.8,28.79,North,-999,0.0,0.0,62,0.00,,,-99.99,FreeWX-Wi 1.01,2013-07-29 04:30:00,
2013-07-28 23:35:00,57.0,44.6,28.79,North,-999,0.0,0.0,63,0.00,,,-99.99,FreeWX-Wi 1.01,2013-07-29 04:35:00,
2013-07-28 23:40:00,56.5,44.8,28.79,North,-999,0.0,0.0,65,0.00,,,-99.99,FreeWX-Wi 1.01,2013-07-29 04:40:00,
2013-07-28 23:45:00,56.3,45.1,28.79,North,-999,0.0,0.0,66,0.00,,,-99.99,FreeWX-Wi 1.01,2013-07-29 04:45:00,
2013-07-28 23:50:00,56.1,45.0,28.79,North,-999,0.0,0.0,66,0.00,,,-99.99,FreeWX-Wi 1.01,2013-07-29 04:50:00,
2013-07-28 23:55:00,55.9,45.5,28.79,North,-999,0.0,0.0,68,0.00,,,-99.99,FreeWX-Wi 1.01,2013-07-29 04:55:00,